createdAt,value
2016-12-08T00:00:37.508Z,5.38
2016-12-08T00:01:37.531Z,5.33
2016-12-08T00:02:37.547Z,5.38
2016-12-08T00:03:37.559Z,5.39
2016-12-08T00:04:37.579Z,5.36
2016-12-08T00:05:37.596Z,5.35
2016-12-08T00:06:37.621Z,5.28
2016-12-08T00:07:52.556Z,5.33
2016-12-08T00:08:37.652Z,5.3
2016-12-08T00:09:37.665Z,5.31
2016-12-08T00:10:37.688Z,5.21
2016-12-08T00:11:37.705Z,5.2
2016-12-08T00:12:37.721Z,5.25
2016-12-08T00:13:37.739Z,5.21
2016-12-08T00:14:37.759Z,5.15
2016-12-08T00:15:37.774Z,5.2
2016-12-08T00:16:37.797Z,5.21
2016-12-08T00:17:37.811Z,5.15
2016-12-08T00:18:37.931Z,5.15
2016-12-08T00:19:37.845Z,5.13
2016-12-08T00:20:52.785Z,5.17
2016-12-08T00:21:37.910Z,5.12
2016-12-08T00:22:52.821Z,5.21
2016-12-08T00:23:52.836Z,5.13
2016-12-08T00:24:37.932Z,5.21
2016-12-08T00:25:37.953Z,5.33
2016-12-08T00:26:37.968Z,5.22
2016-12-08T00:28:38.004Z,5.18
2016-12-08T00:29:38.019Z,5.2
2016-12-08T00:30:38.035Z,5.15
2016-12-08T00:31:38.058Z,5.24
2016-12-08T00:32:38.073Z,5.22
2016-12-08T00:33:38.094Z,5.2
2016-12-08T00:34:38.109Z,5.24
2016-12-08T00:35:38.134Z,5.21
2016-12-08T00:36:38.141Z,5.2
2016-12-08T00:37:38.161Z,5.12
2016-12-08T00:38:53.101Z,5.17
2016-12-08T00:39:38.198Z,5.2
2016-12-08T00:40:38.216Z,5.18
2016-12-08T00:41:38.231Z,5.18
2016-12-08T00:42:38.249Z,5.1
2016-12-08T00:43:38.273Z,5.15
2016-12-08T00:44:38.286Z,5.15
2016-12-08T00:45:38.309Z,5.15
2016-12-08T00:46:38.321Z,5.09
2016-12-08T00:47:38.341Z,5.04
2016-12-08T00:48:38.365Z,4.99
2016-12-08T00:49:53.397Z,4.96
2016-12-08T00:50:38.395Z,4.92
2016-12-08T00:51:38.402Z,4.92
2016-12-08T00:53:53.366Z,5.04
2016-12-08T00:54:38.463Z,5.1
2016-12-08T00:55:38.481Z,5.07
2016-12-08T00:56:38.508Z,5.1
2016-12-08T00:58:38.534Z,5.17
2016-12-08T00:59:38.552Z,5.22
2016-12-08T01:00:38.569Z,5.27
2016-12-08T01:01:38.589Z,5.27
2016-12-08T01:02:38.599Z,5.3
2016-12-08T01:03:38.617Z,5.18
2016-12-08T01:04:38.637Z,5.15
2016-12-08T01:05:38.654Z,5.18
2016-12-08T01:07:38.692Z,5.2
2016-12-08T01:08:38.711Z,5.12
2016-12-08T01:09:53.648Z,5.21
2016-12-08T01:10:53.665Z,5.2
2016-12-08T01:11:38.762Z,5.2
2016-12-08T01:12:38.784Z,5.17
2016-12-08T01:13:38.796Z,5.17
2016-12-08T01:14:38.815Z,5.2
2016-12-08T01:15:38.835Z,5.18
2016-12-08T01:16:38.851Z,5.2
2016-12-08T01:17:38.868Z,5.13
2016-12-08T01:18:38.885Z,5.18
2016-12-08T01:20:38.914Z,5.15
2016-12-08T01:21:38.939Z,5.18
2016-12-08T01:23:53.898Z,5.18
2016-12-08T01:24:38.999Z,5.2
2016-12-08T01:25:39.010Z,5.15
2016-12-08T01:26:53.944Z,5.18
2016-12-08T01:27:39.045Z,5.2
2016-12-08T01:28:39.061Z,5.24
2016-12-08T01:30:39.097Z,5.22
2016-12-08T01:31:39.114Z,5.18
2016-12-08T01:32:39.133Z,5.12
2016-12-08T01:33:39.152Z,5.18
2016-12-08T01:34:39.165Z,5.15
2016-12-08T01:35:39.189Z,5.13
2016-12-08T01:36:39.198Z,5.17
2016-12-08T01:37:39.220Z,5.12
2016-12-08T01:40:39.269Z,5.02
2016-12-08T01:42:54.227Z,5.09
2016-12-08T01:43:39.329Z,5.13
2016-12-08T01:44:39.347Z,5.31
2016-12-08T01:45:39.361Z,5.24
2016-12-08T01:46:39.376Z,5.15
2016-12-08T01:47:39.397Z,5.21
2016-12-08T01:48:39.418Z,5.3
2016-12-08T01:49:39.429Z,5.22
2016-12-08T01:50:39.443Z,5.21
2016-12-08T01:51:39.460Z,5.22
2016-12-08T01:52:39.480Z,5.3
2016-12-08T01:53:39.500Z,5.24
2016-12-08T01:54:39.515Z,5.1
2016-12-08T01:55:39.529Z,5.22
2016-12-08T01:56:39.601Z,5.17
2016-12-08T01:58:54.506Z,5.2
2016-12-08T01:59:54.525Z,5.21
2016-12-08T02:01:39.638Z,5.17
2016-12-08T02:02:39.656Z,5.15
2016-12-08T02:03:39.673Z,5.13
2016-12-08T02:04:39.690Z,5.13
2016-12-08T02:05:39.707Z,5.12
2016-12-08T02:06:39.774Z,5.17
2016-12-08T02:07:39.742Z,5.17
2016-12-08T02:08:39.764Z,5.21
2016-12-08T02:09:39.778Z,5.24
2016-12-08T02:10:39.808Z,5.36
2016-12-08T02:11:54.736Z,5.22
2016-12-08T02:12:54.753Z,5.24
2016-12-08T02:13:54.772Z,5.24
2016-12-08T02:14:39.868Z,5.17
2016-12-08T02:15:39.886Z,5.25
2016-12-08T02:16:39.904Z,5.18
2016-12-08T02:17:39.920Z,5.12
2016-12-08T02:18:39.943Z,5.21
2016-12-08T02:19:39.956Z,5.18
2016-12-08T02:20:39.970Z,5.17
2016-12-08T02:21:39.991Z,5.15
2016-12-08T02:22:40.004Z,5.12
2016-12-08T02:23:40.025Z,5.17
2016-12-08T02:25:40.057Z,5.2
2016-12-08T02:26:54.998Z,5.21
2016-12-08T02:27:55.017Z,5.21
2016-12-08T02:28:40.106Z,5.3
2016-12-08T02:30:40.144Z,5.22
2016-12-08T02:31:40.186Z,5.13
2016-12-08T02:32:40.182Z,5.1
2016-12-08T02:33:40.217Z,5.25
2016-12-08T02:34:40.222Z,5.24
2016-12-08T02:35:40.237Z,5.18
2016-12-08T02:36:40.244Z,5.17
2016-12-08T02:37:40.266Z,5.24
2016-12-08T02:38:40.287Z,5.28
2016-12-08T02:39:40.306Z,5.33
2016-12-08T02:40:40.320Z,5.18
2016-12-08T02:41:40.341Z,5.13
2016-12-08T02:42:40.360Z,5.1
2016-12-08T02:43:40.376Z,5.12
2016-12-08T02:44:55.312Z,5
2016-12-08T02:45:55.333Z,5.03
2016-12-08T02:47:40.443Z,4.92
2016-12-08T02:48:40.455Z,4.99
2016-12-08T02:49:40.475Z,5.09
2016-12-08T02:50:40.499Z,4.97
2016-12-08T02:51:40.509Z,5.06
2016-12-08T02:52:40.535Z,4.92
2016-12-08T02:53:40.546Z,5.03
2016-12-08T02:54:40.571Z,4.94
2016-12-08T02:55:40.584Z,4.96
2016-12-08T02:56:40.597Z,5.06
2016-12-08T02:57:40.618Z,4.91
2016-12-08T02:58:40.632Z,4.91
2016-12-08T02:59:40.650Z,4.99
2016-12-08T03:00:55.593Z,4.99
2016-12-08T03:01:55.606Z,5.06
2016-12-08T03:02:55.626Z,5.06
2016-12-08T03:03:55.640Z,5.06
2016-12-08T03:04:40.737Z,5.03
2016-12-08T03:05:40.760Z,5.09
2016-12-08T03:06:40.771Z,5.04
2016-12-08T03:07:40.788Z,5.1
2016-12-08T03:08:40.813Z,5.12
2016-12-08T03:09:40.828Z,5.1
2016-12-08T03:10:40.848Z,5.04
2016-12-08T03:11:40.863Z,5.06
2016-12-08T03:13:40.891Z,5.17
2016-12-08T03:14:40.913Z,5.12
2016-12-08T03:15:40.927Z,5.13
2016-12-08T03:16:40.946Z,5
2016-12-08T03:17:55.887Z,5.1
2016-12-08T03:18:40.982Z,5
2016-12-08T03:19:41.002Z,4.94
2016-12-08T03:20:41.014Z,5.09
2016-12-08T03:21:41.033Z,5.15
2016-12-08T03:22:41.063Z,5.07
2016-12-08T03:23:41.066Z,5.1
2016-12-08T03:24:41.093Z,5.1
2016-12-08T03:25:41.110Z,5.1
2016-12-08T03:26:41.133Z,5.07
2016-12-08T03:27:56.067Z,5.17
2016-12-08T03:28:41.159Z,5.12
2016-12-08T03:29:41.178Z,5.12
2016-12-08T03:31:56.135Z,5.13
2016-12-08T03:32:41.247Z,5.17
2016-12-08T03:33:56.166Z,5.22
2016-12-08T03:34:56.184Z,5.18
2016-12-08T03:35:41.282Z,5.17
2016-12-08T03:36:41.300Z,5.2
2016-12-08T03:37:41.312Z,5.2
2016-12-08T03:38:41.337Z,5.22
2016-12-08T03:39:41.343Z,5.27
2016-12-08T03:40:41.366Z,5.31
2016-12-08T03:41:41.384Z,5.24
2016-12-08T03:42:41.394Z,5.21
2016-12-08T03:43:41.412Z,5.25
2016-12-08T03:44:41.429Z,5.18
2016-12-08T03:45:41.481Z,5.17
2016-12-08T03:46:41.465Z,5.1
2016-12-08T03:47:41.480Z,5.13
2016-12-08T03:48:56.426Z,5.1
2016-12-08T03:49:41.520Z,5.07
2016-12-08T03:50:56.459Z,5.2
2016-12-08T03:51:41.605Z,5.21
2016-12-08T03:53:41.588Z,5.1
2016-12-08T03:54:41.603Z,5.24
2016-12-08T03:55:41.628Z,5.17
2016-12-08T03:56:41.640Z,5.1
2016-12-08T03:57:41.659Z,5.1
2016-12-08T03:58:41.678Z,5.18
2016-12-08T03:59:41.707Z,5.17
2016-12-08T04:00:41.710Z,5.15
2016-12-08T04:01:41.727Z,5.22
2016-12-08T04:02:41.748Z,5.18
2016-12-08T04:03:56.693Z,5.21
2016-12-08T04:05:41.802Z,5.09
2016-12-08T04:06:41.816Z,5.1
2016-12-08T04:07:41.835Z,5.15
2016-12-08T04:08:41.852Z,5.07
2016-12-08T04:09:41.866Z,5.03
2016-12-08T04:10:41.886Z,5.15
2016-12-08T04:11:41.902Z,5.09
2016-12-08T04:12:41.921Z,5.04
2016-12-08T04:13:41.939Z,5.1
2016-12-08T04:14:41.956Z,5.13
2016-12-08T04:15:41.972Z,5.09
2016-12-08T04:16:41.988Z,5.06
2016-12-08T04:17:42.008Z,5.1
2016-12-08T04:18:42.025Z,5.02
2016-12-08T04:19:42.041Z,5.07
2016-12-08T04:20:56.987Z,5.13
2016-12-08T04:21:42.077Z,5.12
2016-12-08T04:22:42.094Z,5.1
2016-12-08T04:23:42.113Z,5.17
2016-12-08T04:24:42.131Z,4.96
2016-12-08T04:25:42.172Z,5
2016-12-08T04:26:42.164Z,5.07
2016-12-08T04:27:42.182Z,5.02
2016-12-08T04:28:42.202Z,5.06
2016-12-08T04:29:42.216Z,4.92
2016-12-08T04:30:42.233Z,5.06
2016-12-08T04:31:42.256Z,5.07
2016-12-08T04:32:42.269Z,5.1
2016-12-08T04:33:42.288Z,5.17
2016-12-08T04:35:42.319Z,5.03
2016-12-08T04:36:57.265Z,5.03
2016-12-08T04:38:42.376Z,5.1
2016-12-08T04:39:43.395Z,5.13
2016-12-08T04:40:42.410Z,5.13
2016-12-08T04:41:42.425Z,5.1
2016-12-08T04:42:42.442Z,4.97
2016-12-08T04:43:42.462Z,5.03
2016-12-08T04:44:42.527Z,5.06
2016-12-08T04:45:42.494Z,5.03
2016-12-08T04:46:42.514Z,4.97
2016-12-08T04:47:42.532Z,5.04
2016-12-08T04:48:42.549Z,5.03
2016-12-08T04:49:42.569Z,5.15
2016-12-08T04:50:42.883Z,5.1
2016-12-08T04:51:42.600Z,5.1
2016-12-08T04:52:57.545Z,4.99
2016-12-08T04:53:42.634Z,5.03
2016-12-08T04:55:42.670Z,4.96
2016-12-08T04:56:42.688Z,4.96
2016-12-08T04:57:42.713Z,5
2016-12-08T04:58:42.727Z,4.92
2016-12-08T04:59:42.741Z,5.02
2016-12-08T05:00:42.759Z,5.03
2016-12-08T05:01:42.777Z,5.04
2016-12-08T05:02:42.793Z,5.09
2016-12-08T05:03:42.811Z,5.18
2016-12-08T05:04:42.828Z,5.22
2016-12-08T05:05:42.870Z,5.22
2016-12-08T05:06:42.864Z,5.21
2016-12-08T05:07:42.880Z,5.27
2016-12-08T05:08:57.823Z,5.21
2016-12-08T05:09:42.915Z,5.3
2016-12-08T05:10:42.934Z,5.31
2016-12-08T05:12:42.977Z,5.33
2016-12-08T05:13:42.991Z,5.25
2016-12-08T05:14:43.008Z,5.22
2016-12-08T05:15:43.020Z,5.17
2016-12-08T05:16:43.040Z,5.18
2016-12-08T05:17:43.059Z,5.1
2016-12-08T05:18:43.075Z,5.15
2016-12-08T05:19:43.091Z,5.3
2016-12-08T05:20:43.107Z,5.31
2016-12-08T05:21:43.129Z,5.28
2016-12-08T05:22:43.160Z,5.21
2016-12-08T05:23:58.093Z,5.3
2016-12-08T05:24:43.184Z,5.45
2016-12-08T05:25:43.211Z,5.45
2016-12-08T05:26:43.221Z,5.39
2016-12-08T05:27:43.244Z,5.3
2016-12-08T05:28:43.256Z,5.39
2016-12-08T05:29:43.272Z,5.33
2016-12-08T05:30:43.284Z,5.38
2016-12-08T05:31:43.306Z,5.28
2016-12-08T05:32:43.327Z,5.38
2016-12-08T05:33:43.341Z,5.39
2016-12-08T05:34:43.359Z,5.31
2016-12-08T05:35:43.383Z,5.27
2016-12-08T05:36:43.392Z,5.25
2016-12-08T05:37:43.410Z,5.25
2016-12-08T05:38:43.425Z,5.3
2016-12-08T05:39:43.447Z,5.22
2016-12-08T05:40:43.467Z,5.2
2016-12-08T05:41:43.484Z,5.12
2016-12-08T05:42:43.501Z,5.12
2016-12-08T05:43:43.522Z,5.12
2016-12-08T05:44:43.532Z,5.12
2016-12-08T05:45:43.553Z,5.2
2016-12-08T05:46:43.569Z,5.24
2016-12-08T05:47:43.585Z,5.27
2016-12-08T05:48:43.610Z,5.1
2016-12-08T05:49:43.618Z,5.21
2016-12-08T05:50:43.640Z,5.07
2016-12-08T05:51:43.664Z,5.15
2016-12-08T05:52:43.676Z,5.15
2016-12-08T05:53:43.699Z,5.18
2016-12-08T05:54:43.708Z,5.24
2016-12-08T05:55:58.651Z,5.28
2016-12-08T05:56:43.749Z,5.33
2016-12-08T05:57:43.767Z,5.27
2016-12-08T05:58:43.780Z,5.35
2016-12-08T05:59:43.799Z,5.25
2016-12-08T06:00:43.819Z,5.28
2016-12-08T06:01:43.833Z,5.21
2016-12-08T06:02:43.848Z,5.39
2016-12-08T06:03:43.867Z,5.35
2016-12-08T06:04:43.886Z,5.33
2016-12-08T06:05:43.908Z,5.2
2016-12-08T06:06:43.922Z,5.36
2016-12-08T06:07:44.020Z,5.38
2016-12-08T06:08:43.952Z,5.28
2016-12-08T06:09:43.973Z,5.28
2016-12-08T06:10:43.993Z,5.36
2016-12-08T06:11:58.935Z,5.28
2016-12-08T06:12:44.033Z,5.38
2016-12-08T06:13:44.048Z,5.3
2016-12-08T06:14:44.067Z,5.39
2016-12-08T06:15:44.090Z,5.31
2016-12-08T06:16:44.100Z,5.27
2016-12-08T06:17:44.115Z,5.35
2016-12-08T06:18:44.130Z,5.35
2016-12-08T06:19:44.147Z,5.38
2016-12-08T06:20:44.169Z,5.35
2016-12-08T06:21:44.187Z,5.36
2016-12-08T06:22:44.200Z,5.35
2016-12-08T06:23:44.218Z,5.24
2016-12-08T06:24:44.237Z,5.3
2016-12-08T06:25:44.256Z,5.2
2016-12-08T06:26:44.282Z,5.2
2016-12-08T06:27:59.212Z,5.12
2016-12-08T06:28:44.307Z,5.13
2016-12-08T06:29:44.328Z,5.2
2016-12-08T06:30:44.341Z,5.36
2016-12-08T06:31:44.363Z,5.22
2016-12-08T06:32:44.380Z,5.27
2016-12-08T06:33:44.399Z,5.15
2016-12-08T06:34:44.415Z,5.13
2016-12-08T06:35:44.431Z,5.13
2016-12-08T06:36:44.451Z,5.1
2016-12-08T06:37:44.464Z,5.04
2016-12-08T06:38:44.488Z,5.18
2016-12-08T06:39:44.500Z,5.15
2016-12-08T06:40:44.515Z,5.27
2016-12-08T06:41:59.461Z,5.3
2016-12-08T06:42:44.551Z,5.22
2016-12-08T06:43:59.497Z,5.22
2016-12-08T06:44:44.587Z,5.22
2016-12-08T06:45:44.607Z,5.25
2016-12-08T06:46:44.624Z,5.15
2016-12-08T06:47:44.942Z,5.15
2016-12-08T06:48:44.659Z,5.21
2016-12-08T06:49:45.675Z,5.24
2016-12-08T06:50:44.703Z,5.31
2016-12-08T06:51:45.014Z,5.27
2016-12-08T06:52:44.733Z,5.28
2016-12-08T06:53:44.748Z,5.36
2016-12-08T06:54:44.763Z,5.31
2016-12-08T06:55:44.812Z,5.35
2016-12-08T06:56:44.802Z,5.35
2016-12-08T06:57:59.742Z,5.27
2016-12-08T06:58:59.757Z,5.3
2016-12-08T07:00:45.177Z,5.36
2016-12-08T07:01:44.909Z,5.28
2016-12-08T07:02:44.909Z,5.25
2016-12-08T07:03:44.921Z,5.36
2016-12-08T07:04:44.944Z,5.33
2016-12-08T07:05:44.957Z,5.21
2016-12-08T07:06:44.972Z,5.27
2016-12-08T07:07:44.992Z,5.25
2016-12-08T07:08:45.009Z,5.39
2016-12-08T07:10:45.041Z,5.36
2016-12-08T07:11:45.061Z,5.39
2016-12-08T07:13:00.001Z,5.35
2016-12-08T07:13:45.104Z,5.35
2016-12-08T07:14:45.124Z,5.36
2016-12-08T07:16:00.053Z,5.42
2016-12-08T07:16:45.146Z,5.3
2016-12-08T07:18:45.185Z,5.28
2016-12-08T07:19:45.222Z,5.31
2016-12-08T07:20:45.213Z,5.3
2016-12-08T07:21:45.238Z,5.28
2016-12-08T07:22:45.254Z,5.36
2016-12-08T07:23:45.272Z,5.36
2016-12-08T07:24:45.291Z,5.43
2016-12-08T07:26:45.325Z,5.48
2016-12-08T07:28:00.267Z,5.48
2016-12-08T07:29:00.283Z,5.53
2016-12-08T07:29:45.375Z,5.43
2016-12-08T07:31:00.323Z,5.39
2016-12-08T07:32:00.331Z,5.4
2016-12-08T07:32:45.428Z,5.57
2016-12-08T07:33:45.447Z,5.46
2016-12-08T07:34:45.468Z,5.46
2016-12-08T07:35:45.483Z,5.57
2016-12-08T07:36:45.503Z,5.58
2016-12-08T07:37:45.519Z,5.45
2016-12-08T07:38:45.841Z,5.54
2016-12-08T07:39:45.552Z,5.49
2016-12-08T07:40:45.584Z,5.48
2016-12-08T07:41:45.591Z,5.6
2016-12-08T07:42:45.609Z,5.49
2016-12-08T07:43:45.628Z,5.43
2016-12-08T07:44:45.648Z,5.54
2016-12-08T07:45:45.661Z,5.61
2016-12-08T07:47:00.599Z,5.65
2016-12-08T07:47:45.701Z,5.65
2016-12-08T07:48:45.709Z,5.65
2016-12-08T07:50:45.765Z,5.78
2016-12-08T07:51:45.764Z,5.83
2016-12-08T07:52:45.783Z,5.81
2016-12-08T07:53:45.796Z,5.83
2016-12-08T07:54:45.823Z,5.9
2016-12-08T07:55:45.836Z,5.99
2016-12-08T07:56:45.858Z,6.06
2016-12-08T07:57:45.882Z,5.99
2016-12-08T07:58:45.888Z,6.01
2016-12-08T07:59:45.907Z,5.99
2016-12-08T08:03:00.884Z,6.18
2016-12-08T08:03:45.979Z,6.21
2016-12-08T08:04:46.002Z,6.18
2016-12-08T08:05:46.017Z,6.17
2016-12-08T08:06:46.346Z,6.28
2016-12-08T08:07:46.060Z,6.28
2016-12-08T08:08:46.075Z,6.43
2016-12-08T08:09:46.091Z,6.43
2016-12-08T08:10:46.306Z,6.52
2016-12-08T08:11:46.124Z,6.54
2016-12-08T08:12:46.149Z,6.52
2016-12-08T08:13:46.162Z,6.41
2016-12-08T08:14:46.178Z,6.48
2016-12-08T08:15:46.197Z,6.46
2016-12-08T08:16:46.527Z,6.54
2016-12-08T08:18:01.159Z,6.59
2016-12-08T08:19:01.175Z,6.55
2016-12-08T08:19:46.272Z,6.66
2016-12-08T08:20:46.294Z,6.73
2016-12-08T08:21:46.312Z,6.77
2016-12-08T08:22:46.326Z,6.76
2016-12-08T08:23:46.347Z,6.76
2016-12-08T08:24:46.671Z,6.7
2016-12-08T08:25:46.384Z,6.76
2016-12-08T08:26:46.400Z,6.81
2016-12-08T08:27:46.717Z,6.69
2016-12-08T08:28:46.441Z,6.92
2016-12-08T08:29:46.452Z,6.88
2016-12-08T08:30:46.481Z,6.92
2016-12-08T08:31:46.492Z,6.98
2016-12-08T08:32:46.527Z,7.02
2016-12-08T08:34:01.455Z,6.99
2016-12-08T08:34:46.556Z,6.95
2016-12-08T08:35:46.574Z,7.09
2016-12-08T08:36:46.587Z,7.06
2016-12-08T08:37:46.609Z,7.16
2016-12-08T08:38:46.629Z,7.16
2016-12-08T08:39:46.648Z,7.17
2016-12-08T08:40:46.665Z,7.28
2016-12-08T08:42:01.614Z,7.3
2016-12-08T08:42:46.705Z,7.23
2016-12-08T08:43:46.721Z,7.24
2016-12-08T08:45:01.716Z,7.35
2016-12-08T08:45:46.754Z,7.35
2016-12-08T08:48:01.720Z,7.43
2016-12-08T08:48:46.816Z,7.48
2016-12-08T08:49:46.846Z,7.58
2016-12-08T08:51:01.774Z,7.67
2016-12-08T08:52:01.795Z,7.63
2016-12-08T08:52:46.898Z,7.6
2016-12-08T08:53:46.913Z,7.74
2016-12-08T08:54:46.928Z,7.79
2016-12-08T08:55:46.946Z,7.67
2016-12-08T08:56:46.970Z,7.82
2016-12-08T08:57:46.989Z,7.79
2016-12-08T08:58:47.003Z,7.79
2016-12-08T08:59:47.028Z,7.77
2016-12-08T09:00:47.046Z,7.67
2016-12-08T09:01:47.067Z,7.77
2016-12-08T09:02:47.091Z,7.87
2016-12-08T09:03:47.103Z,7.79
2016-12-08T09:04:47.149Z,7.83
2016-12-08T09:06:02.066Z,7.95
2016-12-08T09:06:47.169Z,7.9
2016-12-08T09:07:47.190Z,7.93
2016-12-08T09:08:47.208Z,7.92
2016-12-08T09:09:47.224Z,7.98
2016-12-08T09:10:47.241Z,8.01
2016-12-08T09:11:47.267Z,7.97
2016-12-08T09:12:47.284Z,8.01
2016-12-08T09:13:47.302Z,8.04
2016-12-08T09:14:47.324Z,8.04
2016-12-08T09:15:47.340Z,8.08
2016-12-08T09:17:02.289Z,8.08
2016-12-08T09:17:47.388Z,8.19
2016-12-08T09:20:02.344Z,8.1
2016-12-08T09:20:47.440Z,8.15
2016-12-08T09:22:02.384Z,8.2
2016-12-08T09:23:02.403Z,8.23
2016-12-08T09:23:47.805Z,8.36
2016-12-08T09:24:47.515Z,8.2
2016-12-08T09:25:47.543Z,8.23
2016-12-08T09:26:47.564Z,8.3
2016-12-08T09:27:47.577Z,8.4
2016-12-08T09:28:47.597Z,8.36
2016-12-08T09:29:47.614Z,8.44
2016-12-08T09:30:47.631Z,8.47
2016-12-08T09:31:47.658Z,8.47
2016-12-08T09:32:47.679Z,8.4
2016-12-08T09:33:47.698Z,8.44
2016-12-08T09:34:47.716Z,8.55
2016-12-08T09:35:47.738Z,8.36
2016-12-08T09:36:47.763Z,8.45
2016-12-08T09:38:02.701Z,8.44
2016-12-08T09:39:02.719Z,8.52
2016-12-08T09:39:47.821Z,8.41
2016-12-08T09:40:47.840Z,8.52
2016-12-08T09:41:47.866Z,8.52
2016-12-08T09:42:47.877Z,8.41
2016-12-08T09:43:47.903Z,8.41
2016-12-08T09:44:47.915Z,8.5
2016-12-08T09:45:47.939Z,8.48
2016-12-08T09:46:47.959Z,8.47
2016-12-08T09:47:47.981Z,8.52
2016-12-08T09:48:47.998Z,8.48
2016-12-08T09:49:48.031Z,8.48
2016-12-08T09:51:02.964Z,8.5
2016-12-08T09:51:48.069Z,8.5
2016-12-08T09:52:48.080Z,8.41
2016-12-08T09:54:03.021Z,8.44
2016-12-08T09:55:03.042Z,8.53
2016-12-08T09:55:48.141Z,8.47
2016-12-08T09:56:48.164Z,8.44
2016-12-08T09:57:48.177Z,8.44
2016-12-08T09:58:48.198Z,8.45
2016-12-08T09:59:48.270Z,8.53
2016-12-08T10:00:48.238Z,8.38
2016-12-08T10:01:48.257Z,8.45
2016-12-08T10:02:48.282Z,8.41
2016-12-08T10:03:48.302Z,8.44
2016-12-08T10:04:48.318Z,8.45
2016-12-08T10:05:48.343Z,8.36
2016-12-08T10:07:03.293Z,8.38
2016-12-08T10:07:48.385Z,8.43
2016-12-08T10:09:03.380Z,8.38
2016-12-08T10:09:48.423Z,8.33
2016-12-08T10:10:48.448Z,8.33
2016-12-08T10:11:48.464Z,8.29
2016-12-08T10:12:48.487Z,8.36
2016-12-08T10:13:48.511Z,8.26
2016-12-08T10:14:48.525Z,8.44
2016-12-08T10:15:48.545Z,8.34
2016-12-08T10:16:48.562Z,8.58
2016-12-08T10:17:48.589Z,8.48
2016-12-08T10:18:48.603Z,8.43
2016-12-08T10:19:48.623Z,8.41
2016-12-08T10:21:03.570Z,8.45
2016-12-08T10:21:48.659Z,8.53
2016-12-08T10:22:48.686Z,8.53
2016-12-08T10:23:48.708Z,8.58
2016-12-08T10:24:48.726Z,8.56
2016-12-08T10:25:48.754Z,8.65
2016-12-08T10:26:48.771Z,8.71
2016-12-08T10:27:48.784Z,8.74
2016-12-08T10:28:48.807Z,8.86
2016-12-08T10:29:48.828Z,8.94
2016-12-08T10:30:48.850Z,8.94
2016-12-08T10:31:48.866Z,8.99
2016-12-08T10:32:48.890Z,9.05
2016-12-08T10:33:48.910Z,9.08
2016-12-08T10:34:48.927Z,9.11
2016-12-08T10:35:48.950Z,9.11
2016-12-08T10:36:48.969Z,9.21
2016-12-08T10:38:03.912Z,9.21
2016-12-08T10:38:49.007Z,9.29
2016-12-08T10:39:49.031Z,9.31
2016-12-08T10:41:03.976Z,9.47
2016-12-08T10:42:03.991Z,9.46
2016-12-08T10:42:49.097Z,9.5
2016-12-08T10:43:49.416Z,9.42
2016-12-08T10:44:49.131Z,9.47
2016-12-08T10:45:49.154Z,9.42
2016-12-08T10:46:49.177Z,9.56
2016-12-08T10:47:49.197Z,9.64
2016-12-08T10:48:49.218Z,9.57
2016-12-08T10:49:49.236Z,9.65
2016-12-08T10:50:49.257Z,9.57
2016-12-08T10:51:49.271Z,9.6
2016-12-08T10:52:49.299Z,9.64
2016-12-08T10:54:04.244Z,9.65
2016-12-08T10:54:49.390Z,9.74
2016-12-08T10:55:49.356Z,9.69
2016-12-08T10:57:04.305Z,9.75
2016-12-08T10:57:49.404Z,9.81
2016-12-08T10:58:49.426Z,9.83
2016-12-08T10:59:49.447Z,9.9
2016-12-08T11:00:49.469Z,9.94
2016-12-08T11:01:49.491Z,9.97
2016-12-08T11:02:49.507Z,10.04
2016-12-08T11:03:49.527Z,10.09
2016-12-08T11:04:49.551Z,10.11
2016-12-08T11:05:49.566Z,10.02
2016-12-08T11:06:49.589Z,10.18
2016-12-08T11:07:49.615Z,10.17
2016-12-08T11:08:49.635Z,10.25
2016-12-08T11:09:49.653Z,10.23
2016-12-08T11:10:49.669Z,10.29
2016-12-08T11:11:49.689Z,10.26
2016-12-08T11:13:04.642Z,10.26
2016-12-08T11:13:49.740Z,10.4
2016-12-08T11:14:49.759Z,10.51
2016-12-08T11:15:49.774Z,10.52
2016-12-08T11:16:49.800Z,10.47
2016-12-08T11:17:49.822Z,10.34
2016-12-08T11:18:49.845Z,10.45
2016-12-08T11:19:49.860Z,10.36
2016-12-08T11:20:49.886Z,10.6
2016-12-08T11:21:49.912Z,10.53
2016-12-08T11:22:49.929Z,10.6
2016-12-08T11:23:49.946Z,10.61
2016-12-08T11:25:49.992Z,10.67
2016-12-08T11:27:04.934Z,10.74
2016-12-08T11:27:50.033Z,10.78
2016-12-08T11:29:04.975Z,10.74
2016-12-08T11:29:50.078Z,10.76
2016-12-08T11:30:50.094Z,10.68
2016-12-08T11:31:50.116Z,10.68
2016-12-08T11:32:50.138Z,10.66
2016-12-08T11:33:50.167Z,10.7
2016-12-08T11:34:50.181Z,10.78
2016-12-08T11:35:50.207Z,10.96
2016-12-08T11:36:50.220Z,10.94
2016-12-08T11:37:50.244Z,10.82
2016-12-08T11:38:50.264Z,10.86
2016-12-08T11:39:50.291Z,10.86
2016-12-08T11:40:50.314Z,11
2016-12-08T11:41:50.327Z,11.03
2016-12-08T11:42:50.353Z,11.06
2016-12-08T11:44:05.298Z,11.19
2016-12-08T11:44:50.389Z,11.15
2016-12-08T11:45:50.413Z,11.14
2016-12-08T11:46:50.428Z,11.14
2016-12-08T11:47:50.450Z,11.14
2016-12-08T11:48:50.476Z,11.15
2016-12-08T11:49:50.494Z,11.09
2016-12-08T11:50:50.514Z,11.14
2016-12-08T11:51:50.536Z,11
2016-12-08T11:52:50.559Z,11.07
2016-12-08T11:53:50.578Z,10.91
2016-12-08T11:54:50.609Z,10.97
2016-12-08T11:56:50.644Z,11.11
2016-12-08T11:57:50.661Z,11.18
2016-12-08T11:58:50.688Z,11.06
2016-12-08T11:59:50.715Z,11.06
2016-12-08T12:00:50.728Z,11.06
2016-12-08T12:01:50.752Z,11.21
2016-12-08T12:02:50.770Z,11.27
2016-12-08T12:03:50.790Z,11.21
2016-12-08T12:04:50.813Z,11.17
2016-12-08T12:05:50.841Z,11.18
2016-12-08T12:06:50.855Z,11.17
2016-12-08T12:07:50.884Z,11.21
2016-12-08T12:08:50.899Z,11.32
2016-12-08T12:09:51.226Z,11.25
2016-12-08T12:10:50.941Z,11.27
2016-12-08T12:11:50.960Z,11.36
2016-12-08T12:12:50.981Z,11.43
2016-12-08T12:13:51.034Z,11.47
2016-12-08T12:15:05.950Z,11.47
2016-12-08T12:16:05.972Z,11.54
2016-12-08T12:16:51.070Z,11.47
2016-12-08T12:17:51.088Z,11.44
2016-12-08T12:18:51.109Z,11.52
2016-12-08T12:19:51.184Z,11.61
2016-12-08T12:20:51.162Z,11.54
2016-12-08T12:21:51.176Z,11.57
2016-12-08T12:22:51.198Z,11.6
2016-12-08T12:23:51.214Z,11.54
2016-12-08T12:24:51.245Z,11.58
2016-12-08T12:25:51.260Z,11.52
2016-12-08T12:27:51.298Z,11.44
2016-12-08T12:29:51.349Z,11.35
2016-12-08T12:30:51.391Z,11.33
2016-12-08T12:32:06.312Z,11.27
2016-12-08T12:32:51.413Z,11.32
2016-12-08T12:33:51.436Z,11.25
2016-12-08T12:34:51.454Z,11.27
2016-12-08T12:35:51.481Z,11.22
2016-12-08T12:36:51.492Z,11.36
2016-12-08T12:37:51.521Z,11.32
2016-12-08T12:38:51.545Z,11.35
2016-12-08T12:39:51.563Z,11.24
2016-12-08T12:40:51.593Z,11.28
2016-12-08T12:41:51.607Z,11.35
2016-12-08T12:42:51.627Z,11.36
2016-12-08T12:43:51.648Z,11.29
2016-12-08T12:44:51.667Z,11.32
2016-12-08T12:45:51.700Z,11.29
2016-12-08T12:46:51.714Z,11.25
2016-12-08T12:48:06.659Z,11.32
2016-12-08T12:48:51.753Z,11.27
2016-12-08T12:49:51.778Z,11.28
2016-12-08T12:50:51.798Z,11.24
2016-12-08T12:51:51.821Z,11.32
2016-12-08T12:52:51.842Z,11.33
2016-12-08T12:53:51.862Z,11.4
2016-12-08T12:54:51.878Z,11.36
2016-12-08T12:55:51.903Z,11.35
2016-12-08T12:56:52.342Z,11.39
2016-12-08T12:57:51.948Z,11.35
2016-12-08T12:58:51.975Z,11.4
2016-12-08T12:59:51.987Z,11.49
2016-12-08T13:00:52.013Z,11.52
2016-12-08T13:01:52.036Z,11.52
2016-12-08T13:04:07.002Z,11.43
2016-12-08T13:04:52.103Z,11.39
2016-12-08T13:05:52.120Z,11.42
2016-12-08T13:06:52.138Z,11.46
2016-12-08T13:08:52.184Z,11.43
2016-12-08T13:09:52.208Z,11.42
2016-12-08T13:10:52.226Z,11.4
2016-12-08T13:11:52.247Z,11.4
2016-12-08T13:12:52.270Z,11.46
2016-12-08T13:13:52.291Z,11.49
2016-12-08T13:14:52.309Z,11.49
2016-12-08T13:15:52.333Z,11.69
2016-12-08T13:17:07.281Z,11.67
2016-12-08T13:17:52.378Z,11.69
2016-12-08T13:19:07.321Z,11.72
2016-12-08T13:19:52.420Z,11.75
2016-12-08T13:20:52.443Z,11.78
2016-12-08T13:21:52.463Z,11.75
2016-12-08T13:22:52.484Z,11.67
2016-12-08T13:23:52.505Z,11.7
2016-12-08T13:24:52.533Z,11.67
2016-12-08T13:25:52.551Z,11.62
2016-12-08T13:26:52.577Z,11.67
2016-12-08T13:27:52.591Z,11.61
2016-12-08T13:28:52.617Z,11.55
2016-12-08T13:29:52.638Z,11.52
2016-12-08T13:30:52.656Z,11.57
2016-12-08T13:31:52.680Z,11.47
2016-12-08T13:32:52.702Z,11.54
2016-12-08T13:33:52.719Z,11.43
2016-12-08T13:34:52.749Z,11.47
2016-12-08T13:35:52.765Z,11.51
2016-12-08T13:36:52.786Z,11.44
2016-12-08T13:37:52.816Z,11.51
2016-12-08T13:38:52.837Z,11.47
2016-12-08T13:39:52.850Z,11.46
2016-12-08T13:40:52.871Z,11.54
2016-12-08T13:41:52.901Z,11.57
2016-12-08T13:42:52.921Z,11.49
2016-12-08T13:43:52.944Z,11.46
2016-12-08T13:44:52.961Z,11.46
2016-12-08T13:45:52.988Z,11.46
2016-12-08T13:47:53.051Z,11.43
2016-12-08T13:49:07.972Z,11.43
2016-12-08T13:51:08.009Z,11.42
2016-12-08T13:51:53.108Z,11.46
2016-12-08T13:52:53.139Z,11.47
2016-12-08T13:53:53.154Z,11.46
2016-12-08T13:54:53.174Z,11.46
2016-12-08T13:55:53.196Z,11.33
2016-12-08T13:56:53.222Z,11.32